Terminal Aerodrome Forecast
Issued by NWS Memphis, TN

Home | Current Version | Previous Version | Text Only | Print | Product List | Glossary On
Versions: 1 2 3 4 5 6 7 8 9 10 11 12 13 14 15 16 17 18 19 20 21 22 23 24 25
630
FTUS44 KMEG 142338
TAFMEM
TAF
KMEM 142338Z 1500/1524 20005KT P6SM VCSH SCT035 OVC060
      TEMPO 1500/1503 6SM -SHRA OVC030
     FM150300 05005KT 5SM -RA BR SCT007 OVC015
     FM150800 03003KT 3SM RA BR OVC005
     FM151700 06006KT 5SM RA VCTS BKN007 OVC015CB
     FM152000 35005KT P6SM SCT015=

USA.gov is the U.S. government's official web portal to all federal, state and local government web resources and services.